sensor_id;sensor_type;location;lat;lon;timestamp;P1;durP1;ratioP1;P2;durP2;ratioP2
57443;SDS011;43289;52.962;6.196;2023-12-04T00:01:44;42.88;;;22.20;;
57443;SDS011;43289;52.962;6.196;2023-12-04T00:04:10;37.65;;;22.40;;
57443;SDS011;43289;52.962;6.196;2023-12-04T00:06:36;42.42;;;20.63;;
57443;SDS011;43289;52.962;6.196;2023-12-04T00:09:02;40.15;;;22.08;;
57443;SDS011;43289;52.962;6.196;2023-12-04T00:11:36;38.50;;;21.35;;
57443;SDS011;43289;52.962;6.196;2023-12-04T00:14:02;39.97;;;21.70;;
57443;SDS011;43289;52.962;6.196;2023-12-04T00:16:28;36.55;;;20.17;;
57443;SDS011;43289;52.962;6.196;2023-12-04T00:18:54;38.58;;;19.95;;
57443;SDS011;43289;52.962;6.196;2023-12-04T00:21:20;34.80;;;21.05;;
57443;SDS011;43289;52.962;6.196;2023-12-04T00:23:46;30.52;;;19.02;;
57443;SDS011;43289;52.962;6.196;2023-12-04T00:26:12;41.53;;;20.92;;
57443;SDS011;43289;52.962;6.196;2023-12-04T00:28:38;37.35;;;21.85;;
57443;SDS011;43289;52.962;6.196;2023-12-04T00:31:05;35.88;;;20.80;;
57443;SDS011;43289;52.962;6.196;2023-12-04T00:33:31;35.10;;;20.13;;
57443;SDS011;43289;52.962;6.196;2023-12-04T00:35:57;35.28;;;20.42;;
57443;SDS011;43289;52.962;6.196;2023-12-04T00:38:23;38.72;;;20.67;;
57443;SDS011;43289;52.962;6.196;2023-12-04T00:40:49;41.45;;;20.75;;
57443;SDS011;43289;52.962;6.196;2023-12-04T00:43:15;38.15;;;20.75;;
57443;SDS011;43289;52.962;6.196;2023-12-04T00:45:41;34.58;;;19.88;;
57443;SDS011;43289;52.962;6.196;2023-12-04T00:48:07;36.95;;;21.17;;
57443;SDS011;43289;52.962;6.196;2023-12-04T00:50:33;39.25;;;21.50;;
57443;SDS011;43289;52.962;6.196;2023-12-04T00:52:59;32.28;;;20.00;;
57443;SDS011;43289;52.962;6.196;2023-12-04T00:55:26;36.60;;;19.83;;
57443;SDS011;43289;52.962;6.196;2023-12-04T00:57:52;38.97;;;20.92;;
57443;SDS011;43289;52.962;6.196;2023-12-04T01:00:18;35.17;;;19.67;;
57443;SDS011;43289;52.962;6.196;2023-12-04T01:02:44;32.47;;;20.33;;
57443;SDS011;43289;52.962;6.196;2023-12-04T01:05:10;34.83;;;20.02;;
57443;SDS011;43289;52.962;6.196;2023-12-04T01:07:36;32.88;;;21.08;;
57443;SDS011;43289;52.962;6.196;2023-12-04T01:10:03;35.47;;;20.10;;
57443;SDS011;43289;52.962;6.196;2023-12-04T01:12:29;32.83;;;18.92;;
57443;SDS011;43289;52.962;6.196;2023-12-04T01:14:55;33.28;;;19.73;;
57443;SDS011;43289;52.962;6.196;2023-12-04T01:17:21;32.00;;;19.20;;
57443;SDS011;43289;52.962;6.196;2023-12-04T01:19:47;35.42;;;20.05;;
57443;SDS011;43289;52.962;6.196;2023-12-04T01:22:13;34.78;;;19.77;;
57443;SDS011;43289;52.962;6.196;2023-12-04T01:24:39;39.90;;;21.77;;
57443;SDS011;43289;52.962;6.196;2023-12-04T01:27:05;33.75;;;19.08;;
57443;SDS011;43289;52.962;6.196;2023-12-04T01:29:31;35.30;;;20.38;;
57443;SDS011;43289;52.962;6.196;2023-12-04T01:31:58;36.05;;;20.42;;
57443;SDS011;43289;52.962;6.196;2023-12-04T01:34:24;31.60;;;20.52;;
57443;SDS011;43289;52.962;6.196;2023-12-04T01:36:50;35.63;;;20.38;;
57443;SDS011;43289;52.962;6.196;2023-12-04T01:39:16;36.45;;;19.25;;
57443;SDS011;43289;52.962;6.196;2023-12-04T01:41:42;32.13;;;19.65;;
57443;SDS011;43289;52.962;6.196;2023-12-04T01:44:08;35.22;;;20.30;;
57443;SDS011;43289;52.962;6.196;2023-12-04T01:46:34;33.22;;;19.40;;
57443;SDS011;43289;52.962;6.196;2023-12-04T01:49:00;34.65;;;19.85;;
57443;SDS011;43289;52.962;6.196;2023-12-04T01:51:28;32.58;;;21.05;;
57443;SDS011;43289;52.962;6.196;2023-12-04T01:53:54;33.30;;;19.38;;
57443;SDS011;43289;52.962;6.196;2023-12-04T01:56:21;32.45;;;18.27;;
57443;SDS011;43289;52.962;6.196;2023-12-04T01:58:47;33.83;;;19.67;;
57443;SDS011;43289;52.962;6.196;2023-12-04T02:01:13;37.28;;;20.55;;
57443;SDS011;43289;52.962;6.196;2023-12-04T02:03:40;33.15;;;18.63;;
57443;SDS011;43289;52.962;6.196;2023-12-04T02:06:07;36.40;;;19.88;;
57443;SDS011;43289;52.962;6.196;2023-12-04T02:08:33;37.40;;;20.92;;
57443;SDS011;43289;52.962;6.196;2023-12-04T02:11:00;33.92;;;19.80;;
57443;SDS011;43289;52.962;6.196;2023-12-04T02:13:26;39.28;;;21.15;;
57443;SDS011;43289;52.962;6.196;2023-12-04T02:15:53;35.85;;;21.27;;
57443;SDS011;43289;52.962;6.196;2023-12-04T02:18:20;41.42;;;21.17;;
57443;SDS011;43289;52.962;6.196;2023-12-04T02:20:47;35.83;;;20.30;;
57443;SDS011;43289;52.962;6.196;2023-12-04T02:23:13;34.60;;;20.98;;
57443;SDS011;43289;52.962;6.196;2023-12-04T02:25:39;34.55;;;20.55;;
57443;SDS011;43289;52.962;6.196;2023-12-04T02:28:05;35.15;;;20.98;;
57443;SDS011;43289;52.962;6.196;2023-12-04T02:30:32;34.85;;;19.23;;
57443;SDS011;43289;52.962;6.196;2023-12-04T02:33:03;36.95;;;20.23;;
57443;SDS011;43289;52.962;6.196;2023-12-04T02:35:31;37.03;;;21.30;;
57443;SDS011;43289;52.962;6.196;2023-12-04T02:37:58;34.28;;;20.58;;
57443;SDS011;43289;52.962;6.196;2023-12-04T02:40:26;35.88;;;18.98;;
57443;SDS011;43289;52.962;6.196;2023-12-04T02:42:52;31.40;;;18.73;;
57443;SDS011;43289;52.962;6.196;2023-12-04T02:45:18;37.13;;;20.83;;
57443;SDS011;43289;52.962;6.196;2023-12-04T02:47:44;34.30;;;18.40;;
57443;SDS011;43289;52.962;6.196;2023-12-04T02:50:10;33.80;;;18.13;;
57443;SDS011;43289;52.962;6.196;2023-12-04T02:52:36;32.95;;;19.52;;
57443;SDS011;43289;52.962;6.196;2023-12-04T02:55:02;32.42;;;18.85;;
57443;SDS011;43289;52.962;6.196;2023-12-04T02:57:28;34.30;;;19.25;;
57443;SDS011;43289;52.962;6.196;2023-12-04T02:59:54;33.38;;;19.67;;
57443;SDS011;43289;52.962;6.196;2023-12-04T03:02:20;35.70;;;18.65;;
57443;SDS011;43289;52.962;6.196;2023-12-04T03:04:46;29.77;;;17.50;;
57443;SDS011;43289;52.962;6.196;2023-12-04T03:07:12;35.20;;;18.52;;
57443;SDS011;43289;52.962;6.196;2023-12-04T03:09:38;32.03;;;18.58;;
57443;SDS011;43289;52.962;6.196;2023-12-04T03:12:04;31.80;;;18.60;;
57443;SDS011;43289;52.962;6.196;2023-12-04T03:14:30;33.80;;;19.70;;
57443;SDS011;43289;52.962;6.196;2023-12-04T03:16:56;30.83;;;17.80;;
57443;SDS011;43289;52.962;6.196;2023-12-04T03:19:22;34.47;;;18.92;;
57443;SDS011;43289;52.962;6.196;2023-12-04T03:21:48;27.40;;;16.42;;
57443;SDS011;43289;52.962;6.196;2023-12-04T03:24:14;33.08;;;19.33;;
57443;SDS011;43289;52.962;6.196;2023-12-04T03:26:40;31.27;;;19.02;;
57443;SDS011;43289;52.962;6.196;2023-12-04T03:29:06;33.10;;;18.33;;
57443;SDS011;43289;52.962;6.196;2023-12-04T03:31:32;27.48;;;17.02;;
57443;SDS011;43289;52.962;6.196;2023-12-04T03:33:59;29.95;;;16.92;;
57443;SDS011;43289;52.962;6.196;2023-12-04T03:36:25;29.20;;;17.73;;
57443;SDS011;43289;52.962;6.196;2023-12-04T03:38:51;31.63;;;18.10;;
57443;SDS011;43289;52.962;6.196;2023-12-04T03:41:17;30.40;;;17.45;;
57443;SDS011;43289;52.962;6.196;2023-12-04T03:43:43;32.15;;;17.42;;
57443;SDS011;43289;52.962;6.196;2023-12-04T03:46:09;33.15;;;16.35;;
57443;SDS011;43289;52.962;6.196;2023-12-04T03:48:35;30.33;;;17.48;;
57443;SDS011;43289;52.962;6.196;2023-12-04T03:51:01;33.00;;;18.33;;
57443;SDS011;43289;52.962;6.196;2023-12-04T03:53:27;29.42;;;17.15;;
57443;SDS011;43289;52.962;6.196;2023-12-04T03:55:53;30.00;;;17.15;;
57443;SDS011;43289;52.962;6.196;2023-12-04T03:58:19;29.38;;;16.85;;
57443;SDS011;43289;52.962;6.196;2023-12-04T04:00:45;29.70;;;17.02;;
57443;SDS011;43289;52.962;6.196;2023-12-04T04:03:11;28.98;;;16.98;;
57443;SDS011;43289;52.962;6.196;2023-12-04T04:05:37;27.60;;;16.60;;
57443;SDS011;43289;52.962;6.196;2023-12-04T04:08:03;29.17;;;16.20;;
57443;SDS011;43289;52.962;6.196;2023-12-04T04:10:32;24.98;;;15.30;;
57443;SDS011;43289;52.962;6.196;2023-12-04T04:12:58;30.10;;;17.63;;
57443;SDS011;43289;52.962;6.196;2023-12-04T04:15:24;29.58;;;17.73;;
57443;SDS011;43289;52.962;6.196;2023-12-04T04:17:50;27.08;;;16.25;;
57443;SDS011;43289;52.962;6.196;2023-12-04T04:20:17;24.88;;;15.75;;
57443;SDS011;43289;52.962;6.196;2023-12-04T04:22:43;27.38;;;15.32;;
57443;SDS011;43289;52.962;6.196;2023-12-04T04:25:11;28.67;;;16.33;;
57443;SDS011;43289;52.962;6.196;2023-12-04T04:27:37;26.85;;;16.33;;
57443;SDS011;43289;52.962;6.196;2023-12-04T04:30:04;31.55;;;17.58;;
57443;SDS011;43289;52.962;6.196;2023-12-04T04:32:30;26.83;;;15.57;;
57443;SDS011;43289;52.962;6.196;2023-12-04T04:34:56;25.90;;;14.77;;
57443;SDS011;43289;52.962;6.196;2023-12-04T04:37:22;23.95;;;14.07;;
57443;SDS011;43289;52.962;6.196;2023-12-04T04:39:48;24.30;;;15.63;;
57443;SDS011;43289;52.962;6.196;2023-12-04T04:42:14;24.50;;;15.45;;
57443;SDS011;43289;52.962;6.196;2023-12-04T04:44:40;25.38;;;14.60;;
57443;SDS011;43289;52.962;6.196;2023-12-04T04:47:06;32.55;;;16.98;;
57443;SDS011;43289;52.962;6.196;2023-12-04T04:49:32;27.48;;;14.45;;
57443;SDS011;43289;52.962;6.196;2023-12-04T04:51:58;28.70;;;16.70;;
57443;SDS011;43289;52.962;6.196;2023-12-04T04:54:24;26.95;;;15.05;;
57443;SDS011;43289;52.962;6.196;2023-12-04T04:56:50;28.45;;;16.40;;
57443;SDS011;43289;52.962;6.196;2023-12-04T04:59:16;25.98;;;15.77;;
57443;SDS011;43289;52.962;6.196;2023-12-04T05:01:42;24.65;;;14.65;;
57443;SDS011;43289;52.962;6.196;2023-12-04T05:04:08;24.13;;;14.82;;
57443;SDS011;43289;52.962;6.196;2023-12-04T05:06:34;24.45;;;13.95;;
57443;SDS011;43289;52.962;6.196;2023-12-04T05:09:00;25.55;;;16.05;;
57443;SDS011;43289;52.962;6.196;2023-12-04T05:11:26;25.50;;;15.52;;
57443;SDS011;43289;52.962;6.196;2023-12-04T05:13:52;28.65;;;14.88;;
57443;SDS011;43289;52.962;6.196;2023-12-04T05:16:18;23.88;;;15.90;;
57443;SDS011;43289;52.962;6.196;2023-12-04T05:18:44;24.58;;;14.65;;
57443;SDS011;43289;52.962;6.196;2023-12-04T05:21:11;26.08;;;14.50;;
57443;SDS011;43289;52.962;6.196;2023-12-04T05:23:37;25.75;;;14.80;;
57443;SDS011;43289;52.962;6.196;2023-12-04T05:26:04;25.25;;;14.95;;
57443;SDS011;43289;52.962;6.196;2023-12-04T05:28:30;24.10;;;14.02;;
57443;SDS011;43289;52.962;6.196;2023-12-04T05:30:57;23.85;;;13.68;;
57443;SDS011;43289;52.962;6.196;2023-12-04T05:33:23;24.60;;;15.52;;
57443;SDS011;43289;52.962;6.196;2023-12-04T05:35:49;22.08;;;13.57;;
57443;SDS011;43289;52.962;6.196;2023-12-04T05:38:19;23.70;;;14.05;;
57443;SDS011;43289;52.962;6.196;2023-12-04T05:40:45;25.98;;;14.95;;
57443;SDS011;43289;52.962;6.196;2023-12-04T05:43:11;24.15;;;14.50;;
57443;SDS011;43289;52.962;6.196;2023-12-04T05:45:38;22.85;;;13.98;;
57443;SDS011;43289;52.962;6.196;2023-12-04T05:48:05;27.48;;;14.52;;
57443;SDS011;43289;52.962;6.196;2023-12-04T05:50:31;23.98;;;15.05;;
57443;SDS011;43289;52.962;6.196;2023-12-04T05:52:57;23.60;;;13.57;;
57443;SDS011;43289;52.962;6.196;2023-12-04T05:55:23;24.38;;;14.25;;
57443;SDS011;43289;52.962;6.196;2023-12-04T05:57:49;24.27;;;13.70;;
57443;SDS011;43289;52.962;6.196;2023-12-04T06:00:16;24.88;;;14.10;;
57443;SDS011;43289;52.962;6.196;2023-12-04T06:02:42;24.15;;;13.63;;
57443;SDS011;43289;52.962;6.196;2023-12-04T06:05:09;23.92;;;13.85;;
57443;SDS011;43289;52.962;6.196;2023-12-04T06:07:35;21.35;;;12.05;;
57443;SDS011;43289;52.962;6.196;2023-12-04T06:10:02;22.85;;;13.93;;
57443;SDS011;43289;52.962;6.196;2023-12-04T06:12:31;24.88;;;14.25;;
57443;SDS011;43289;52.962;6.196;2023-12-04T06:14:57;21.35;;;13.85;;
57443;SDS011;43289;52.962;6.196;2023-12-04T06:17:23;22.90;;;13.02;;
57443;SDS011;43289;52.962;6.196;2023-12-04T06:19:49;21.50;;;13.18;;
57443;SDS011;43289;52.962;6.196;2023-12-04T06:22:16;22.55;;;13.57;;
57443;SDS011;43289;52.962;6.196;2023-12-04T06:24:45;21.52;;;12.75;;
57443;SDS011;43289;52.962;6.196;2023-12-04T06:27:12;23.23;;;13.10;;
57443;SDS011;43289;52.962;6.196;2023-12-04T06:29:40;22.73;;;14.32;;
57443;SDS011;43289;52.962;6.196;2023-12-04T06:32:07;20.65;;;13.02;;
57443;SDS011;43289;52.962;6.196;2023-12-04T06:34:33;18.75;;;12.57;;
57443;SDS011;43289;52.962;6.196;2023-12-04T06:36:59;21.10;;;12.45;;
57443;SDS011;43289;52.962;6.196;2023-12-04T06:39:28;21.30;;;12.43;;
57443;SDS011;43289;52.962;6.196;2023-12-04T06:41:57;24.10;;;12.68;;
57443;SDS011;43289;52.962;6.196;2023-12-04T06:44:23;19.38;;;12.38;;
57443;SDS011;43289;52.962;6.196;2023-12-04T06:46:49;22.77;;;13.07;;
57443;SDS011;43289;52.962;6.196;2023-12-04T06:49:17;22.10;;;11.57;;
57443;SDS011;43289;52.962;6.196;2023-12-04T06:51:44;19.30;;;11.65;;
57443;SDS011;43289;52.962;6.196;2023-12-04T06:54:10;19.90;;;12.50;;
57443;SDS011;43289;52.962;6.196;2023-12-04T06:56:38;17.90;;;11.68;;
57443;SDS011;43289;52.962;6.196;2023-12-04T06:59:04;16.95;;;10.30;;
57443;SDS011;43289;52.962;6.196;2023-12-04T07:01:30;18.60;;;11.88;;
57443;SDS011;43289;52.962;6.196;2023-12-04T07:03:56;18.33;;;11.02;;
57443;SDS011;43289;52.962;6.196;2023-12-04T07:06:22;17.98;;;11.02;;
57443;SDS011;43289;52.962;6.196;2023-12-04T07:08:49;19.02;;;10.73;;
57443;SDS011;43289;52.962;6.196;2023-12-04T07:11:15;18.65;;;11.48;;
57443;SDS011;43289;52.962;6.196;2023-12-04T07:13:41;17.95;;;10.55;;
57443;SDS011;43289;52.962;6.196;2023-12-04T07:16:07;17.88;;;10.57;;
57443;SDS011;43289;52.962;6.196;2023-12-04T07:18:34;15.73;;;10.38;;
57443;SDS011;43289;52.962;6.196;2023-12-04T07:21:00;16.98;;;11.50;;
57443;SDS011;43289;52.962;6.196;2023-12-04T07:23:26;18.50;;;9.90;;
57443;SDS011;43289;52.962;6.196;2023-12-04T07:25:52;15.38;;;9.63;;
57443;SDS011;43289;52.962;6.196;2023-12-04T07:28:18;23.38;;;11.35;;
57443;SDS011;43289;52.962;6.196;2023-12-04T07:30:44;14.98;;;9.93;;
57443;SDS011;43289;52.962;6.196;2023-12-04T07:33:11;16.25;;;10.25;;
57443;SDS011;43289;52.962;6.196;2023-12-04T07:35:37;18.30;;;11.00;;
57443;SDS011;43289;52.962;6.196;2023-12-04T07:38:03;15.43;;;10.13;;
57443;SDS011;43289;52.962;6.196;2023-12-04T07:40:30;15.05;;;10.05;;
57443;SDS011;43289;52.962;6.196;2023-12-04T07:42:56;16.33;;;9.57;;
57443;SDS011;43289;52.962;6.196;2023-12-04T07:45:22;15.63;;;9.57;;
57443;SDS011;43289;52.962;6.196;2023-12-04T07:47:49;15.63;;;9.05;;
57443;SDS011;43289;52.962;6.196;2023-12-04T07:50:15;14.98;;;9.48;;
57443;SDS011;43289;52.962;6.196;2023-12-04T07:55:33;14.75;;;8.10;;
57443;SDS011;43289;52.962;6.196;2023-12-04T07:57:59;16.33;;;9.73;;
57443;SDS011;43289;52.962;6.196;2023-12-04T08:00:25;13.48;;;8.70;;
57443;SDS011;43289;52.962;6.196;2023-12-04T08:02:51;15.70;;;8.88;;
57443;SDS011;43289;52.962;6.196;2023-12-04T08:05:17;14.57;;;8.60;;
57443;SDS011;43289;52.962;6.196;2023-12-04T08:07:43;15.70;;;8.88;;
57443;SDS011;43289;52.962;6.196;2023-12-04T08:10:10;14.55;;;8.32;;
57443;SDS011;43289;52.962;6.196;2023-12-04T08:12:36;12.85;;;7.40;;
57443;SDS011;43289;52.962;6.196;2023-12-04T08:15:03;12.77;;;8.45;;
57443;SDS011;43289;52.962;6.196;2023-12-04T08:17:29;13.25;;;7.82;;
57443;SDS011;43289;52.962;6.196;2023-12-04T08:19:55;13.40;;;7.78;;
57443;SDS011;43289;52.962;6.196;2023-12-04T08:22:22;14.38;;;8.43;;
57443;SDS011;43289;52.962;6.196;2023-12-04T08:24:48;15.93;;;9.55;;
57443;SDS011;43289;52.962;6.196;2023-12-04T08:27:14;12.82;;;7.55;;
57443;SDS011;43289;52.962;6.196;2023-12-04T08:29:41;12.68;;;7.65;;
57443;SDS011;43289;52.962;6.196;2023-12-04T08:32:07;13.88;;;8.02;;
57443;SDS011;43289;52.962;6.196;2023-12-04T08:34:33;10.93;;;6.57;;
57443;SDS011;43289;52.962;6.196;2023-12-04T08:36:59;13.45;;;7.30;;
57443;SDS011;43289;52.962;6.196;2023-12-04T08:39:25;10.85;;;6.97;;
57443;SDS011;43289;52.962;6.196;2023-12-04T08:41:51;14.73;;;7.15;;
57443;SDS011;43289;52.962;6.196;2023-12-04T08:44:17;12.90;;;6.97;;
57443;SDS011;43289;52.962;6.196;2023-12-04T08:46:43;11.63;;;6.63;;
57443;SDS011;43289;52.962;6.196;2023-12-04T08:49:10;10.63;;;7.18;;
57443;SDS011;43289;52.962;6.196;2023-12-04T08:51:36;13.07;;;7.57;;
57443;SDS011;43289;52.962;6.196;2023-12-04T08:54:02;10.18;;;7.00;;
57443;SDS011;43289;52.962;6.196;2023-12-04T08:56:28;10.80;;;6.28;;
57443;SDS011;43289;52.962;6.196;2023-12-04T08:58:55;9.57;;;6.10;;
57443;SDS011;43289;52.962;6.196;2023-12-04T09:01:22;10.50;;;6.22;;
57443;SDS011;43289;52.962;6.196;2023-12-04T09:03:48;10.13;;;6.18;;
57443;SDS011;43289;52.962;6.196;2023-12-04T09:06:14;10.50;;;6.57;;
57443;SDS011;43289;52.962;6.196;2023-12-04T09:08:40;9.52;;;6.50;;
57443;SDS011;43289;52.962;6.196;2023-12-04T09:11:07;9.88;;;6.10;;
57443;SDS011;43289;52.962;6.196;2023-12-04T09:13:33;10.25;;;6.55;;
57443;SDS011;43289;52.962;6.196;2023-12-04T09:15:59;12.77;;;6.93;;
57443;SDS011;43289;52.962;6.196;2023-12-04T09:18:25;10.85;;;6.60;;
57443;SDS011;43289;52.962;6.196;2023-12-04T09:20:51;10.10;;;6.43;;
57443;SDS011;43289;52.962;6.196;2023-12-04T09:23:17;8.43;;;6.15;;
57443;SDS011;43289;52.962;6.196;2023-12-04T09:25:43;13.57;;;6.85;;
57443;SDS011;43289;52.962;6.196;2023-12-04T09:28:09;9.32;;;6.03;;
57443;SDS011;43289;52.962;6.196;2023-12-04T09:30:36;11.15;;;5.53;;
57443;SDS011;43289;52.962;6.196;2023-12-04T09:33:02;10.75;;;5.85;;
57443;SDS011;43289;52.962;6.196;2023-12-04T09:35:28;10.80;;;6.32;;
57443;SDS011;43289;52.962;6.196;2023-12-04T09:37:54;9.93;;;6.57;;
57443;SDS011;43289;52.962;6.196;2023-12-04T09:40:21;10.05;;;6.72;;
57443;SDS011;43289;52.962;6.196;2023-12-04T09:42:47;10.32;;;5.55;;
57443;SDS011;43289;52.962;6.196;2023-12-04T09:45:13;9.70;;;6.00;;
57443;SDS011;43289;52.962;6.196;2023-12-04T09:47:40;11.10;;;6.30;;
57443;SDS011;43289;52.962;6.196;2023-12-04T09:50:06;9.93;;;6.00;;
57443;SDS011;43289;52.962;6.196;2023-12-04T09:52:34;11.90;;;6.25;;
57443;SDS011;43289;52.962;6.196;2023-12-04T09:55:00;11.20;;;6.05;;
57443;SDS011;43289;52.962;6.196;2023-12-04T09:57:26;9.50;;;5.45;;
57443;SDS011;43289;52.962;6.196;2023-12-04T09:59:52;9.55;;;5.70;;
57443;SDS011;43289;52.962;6.196;2023-12-04T10:02:21;8.98;;;5.85;;
57443;SDS011;43289;52.962;6.196;2023-12-04T10:04:48;10.30;;;6.38;;
57443;SDS011;43289;52.962;6.196;2023-12-04T10:07:14;10.15;;;5.90;;
57443;SDS011;43289;52.962;6.196;2023-12-04T10:09:40;11.88;;;6.18;;
57443;SDS011;43289;52.962;6.196;2023-12-04T10:12:06;11.13;;;5.70;;
57443;SDS011;43289;52.962;6.196;2023-12-04T10:14:33;9.55;;;6.28;;
57443;SDS011;43289;52.962;6.196;2023-12-04T10:16:59;10.70;;;5.88;;
57443;SDS011;43289;52.962;6.196;2023-12-04T10:19:26;11.73;;;6.45;;
57443;SDS011;43289;52.962;6.196;2023-12-04T10:21:54;10.45;;;6.40;;
57443;SDS011;43289;52.962;6.196;2023-12-04T10:24:28;10.43;;;6.70;;
57443;SDS011;43289;52.962;6.196;2023-12-04T10:26:54;10.57;;;6.60;;
57443;SDS011;43289;52.962;6.196;2023-12-04T10:29:21;10.98;;;6.70;;
57443;SDS011;43289;52.962;6.196;2023-12-04T10:31:49;10.27;;;6.13;;
57443;SDS011;43289;52.962;6.196;2023-12-04T10:34:15;10.32;;;6.38;;
57443;SDS011;43289;52.962;6.196;2023-12-04T10:36:41;11.57;;;6.90;;
57443;SDS011;43289;52.962;6.196;2023-12-04T10:39:10;10.90;;;5.90;;
57443;SDS011;43289;52.962;6.196;2023-12-04T10:41:38;9.15;;;5.97;;
57443;SDS011;43289;52.962;6.196;2023-12-04T10:44:04;9.60;;;5.70;;
57443;SDS011;43289;52.962;6.196;2023-12-04T10:46:31;11.05;;;6.75;;
57443;SDS011;43289;52.962;6.196;2023-12-04T10:48:58;10.70;;;6.45;;
57443;SDS011;43289;52.962;6.196;2023-12-04T10:51:24;9.50;;;6.20;;
57443;SDS011;43289;52.962;6.196;2023-12-04T10:53:52;11.32;;;6.85;;
57443;SDS011;43289;52.962;6.196;2023-12-04T10:56:35;11.35;;;6.80;;
57443;SDS011;43289;52.962;6.196;2023-12-04T10:59:07;11.35;;;6.85;;
57443;SDS011;43289;52.962;6.196;2023-12-04T11:01:35;10.30;;;7.00;;
57443;SDS011;43289;52.962;6.196;2023-12-04T11:04:02;10.48;;;6.60;;
57443;SDS011;43289;52.962;6.196;2023-12-04T11:06:32;10.50;;;5.88;;
57443;SDS011;43289;52.962;6.196;2023-12-04T11:08:59;10.35;;;6.68;;
57443;SDS011;43289;52.962;6.196;2023-12-04T11:11:31;11.32;;;6.53;;
57443;SDS011;43289;52.962;6.196;2023-12-04T11:14:00;9.93;;;6.55;;
57443;SDS011;43289;52.962;6.196;2023-12-04T11:16:28;11.90;;;6.55;;
57443;SDS011;43289;52.962;6.196;2023-12-04T11:19:00;11.38;;;6.38;;
57443;SDS011;43289;52.962;6.196;2023-12-04T11:21:28;9.50;;;6.18;;
57443;SDS011;43289;52.962;6.196;2023-12-04T11:23:55;10.77;;;7.03;;
57443;SDS011;43289;52.962;6.196;2023-12-04T11:26:23;11.07;;;6.43;;
57443;SDS011;43289;52.962;6.196;2023-12-04T11:28:50;9.82;;;6.75;;
57443;SDS011;43289;52.962;6.196;2023-12-04T11:31:16;10.85;;;6.93;;
57443;SDS011;43289;52.962;6.196;2023-12-04T11:33:43;11.18;;;6.47;;
57443;SDS011;43289;52.962;6.196;2023-12-04T11:36:10;10.93;;;7.40;;
57443;SDS011;43289;52.962;6.196;2023-12-04T11:38:37;11.50;;;6.50;;
57443;SDS011;43289;52.962;6.196;2023-12-04T11:41:19;9.07;;;5.72;;
57443;SDS011;43289;52.962;6.196;2023-12-04T11:43:46;9.77;;;6.45;;
57443;SDS011;43289;52.962;6.196;2023-12-04T11:46:13;11.23;;;7.53;;
57443;SDS011;43289;52.962;6.196;2023-12-04T11:48:39;13.30;;;7.57;;
57443;SDS011;43289;52.962;6.196;2023-12-04T11:51:06;9.75;;;6.18;;
57443;SDS011;43289;52.962;6.196;2023-12-04T11:53:32;10.60;;;6.60;;
57443;SDS011;43289;52.962;6.196;2023-12-04T11:55:58;10.95;;;7.38;;
57443;SDS011;43289;52.962;6.196;2023-12-04T11:58:24;10.57;;;7.03;;
57443;SDS011;43289;52.962;6.196;2023-12-04T12:00:51;10.57;;;6.93;;
57443;SDS011;43289;52.962;6.196;2023-12-04T12:03:20;11.32;;;6.68;;
57443;SDS011;43289;52.962;6.196;2023-12-04T12:05:47;10.40;;;6.22;;
57443;SDS011;43289;52.962;6.196;2023-12-04T12:08:14;9.73;;;6.82;;
57443;SDS011;43289;52.962;6.196;2023-12-04T12:10:42;10.68;;;6.95;;
57443;SDS011;43289;52.962;6.196;2023-12-04T12:13:09;10.45;;;6.88;;
57443;SDS011;43289;52.962;6.196;2023-12-04T12:15:36;12.02;;;6.90;;
57443;SDS011;43289;52.962;6.196;2023-12-04T12:18:02;11.73;;;6.47;;
57443;SDS011;43289;52.962;6.196;2023-12-04T12:20:29;9.95;;;6.70;;
57443;SDS011;43289;52.962;6.196;2023-12-04T12:22:55;11.63;;;7.18;;
57443;SDS011;43289;52.962;6.196;2023-12-04T12:25:21;11.48;;;6.13;;
57443;SDS011;43289;52.962;6.196;2023-12-04T12:27:47;12.55;;;6.65;;
57443;SDS011;43289;52.962;6.196;2023-12-04T12:30:13;11.32;;;7.22;;
57443;SDS011;43289;52.962;6.196;2023-12-04T12:32:39;11.48;;;6.45;;
57443;SDS011;43289;52.962;6.196;2023-12-04T12:35:06;10.40;;;6.22;;
57443;SDS011;43289;52.962;6.196;2023-12-04T12:37:37;10.82;;;6.57;;
57443;SDS011;43289;52.962;6.196;2023-12-04T12:40:04;11.30;;;7.05;;
57443;SDS011;43289;52.962;6.196;2023-12-04T12:42:30;10.18;;;6.32;;
57443;SDS011;43289;52.962;6.196;2023-12-04T12:44:59;10.80;;;6.22;;
57443;SDS011;43289;52.962;6.196;2023-12-04T12:47:25;9.88;;;5.60;;
57443;SDS011;43289;52.962;6.196;2023-12-04T12:49:52;12.23;;;6.85;;
57443;SDS011;43289;52.962;6.196;2023-12-04T12:52:18;9.70;;;6.38;;
57443;SDS011;43289;52.962;6.196;2023-12-04T12:54:45;8.70;;;5.65;;
57443;SDS011;43289;52.962;6.196;2023-12-04T12:57:11;10.65;;;6.43;;
57443;SDS011;43289;52.962;6.196;2023-12-04T12:59:38;9.48;;;6.25;;
57443;SDS011;43289;52.962;6.196;2023-12-04T13:02:04;10.13;;;7.15;;
57443;SDS011;43289;52.962;6.196;2023-12-04T13:04:38;10.98;;;7.10;;
57443;SDS011;43289;52.962;6.196;2023-12-04T13:07:05;11.55;;;8.05;;
57443;SDS011;43289;52.962;6.196;2023-12-04T13:09:32;10.60;;;6.53;;
57443;SDS011;43289;52.962;6.196;2023-12-04T13:12:00;13.55;;;6.53;;
57443;SDS011;43289;52.962;6.196;2023-12-04T13:14:26;10.57;;;6.05;;
57443;SDS011;43289;52.962;6.196;2023-12-04T13:16:52;10.68;;;5.80;;
57443;SDS011;43289;52.962;6.196;2023-12-04T13:19:20;11.80;;;6.18;;
57443;SDS011;43289;52.962;6.196;2023-12-04T13:21:46;10.52;;;5.90;;
57443;SDS011;43289;52.962;6.196;2023-12-04T13:24:12;9.75;;;6.00;;
57443;SDS011;43289;52.962;6.196;2023-12-04T13:26:38;11.77;;;6.35;;
57443;SDS011;43289;52.962;6.196;2023-12-04T13:29:04;9.95;;;5.82;;
57443;SDS011;43289;52.962;6.196;2023-12-04T13:31:31;11.00;;;6.32;;
57443;SDS011;43289;52.962;6.196;2023-12-04T13:33:57;10.10;;;6.43;;
57443;SDS011;43289;52.962;6.196;2023-12-04T13:36:23;9.57;;;6.28;;
57443;SDS011;43289;52.962;6.196;2023-12-04T13:38:49;9.05;;;6.38;;
57443;SDS011;43289;52.962;6.196;2023-12-04T13:41:16;12.18;;;6.35;;
57443;SDS011;43289;52.962;6.196;2023-12-04T13:44:01;11.10;;;6.35;;
57443;SDS011;43289;52.962;6.196;2023-12-04T13:46:28;11.52;;;6.72;;
57443;SDS011;43289;52.962;6.196;2023-12-04T13:48:55;11.65;;;6.35;;
57443;SDS011;43289;52.962;6.196;2023-12-04T13:51:21;9.45;;;6.00;;
57443;SDS011;43289;52.962;6.196;2023-12-04T13:53:47;9.95;;;6.28;;
57443;SDS011;43289;52.962;6.196;2023-12-04T13:56:21;12.05;;;7.25;;
57443;SDS011;43289;52.962;6.196;2023-12-04T13:59:07;12.50;;;6.85;;
57443;SDS011;43289;52.962;6.196;2023-12-04T14:01:33;10.25;;;6.13;;
57443;SDS011;43289;52.962;6.196;2023-12-04T14:03:59;12.57;;;6.95;;
57443;SDS011;43289;52.962;6.196;2023-12-04T14:06:29;10.13;;;7.07;;
57443;SDS011;43289;52.962;6.196;2023-12-04T14:08:56;9.75;;;5.88;;
57443;SDS011;43289;52.962;6.196;2023-12-04T14:11:22;11.82;;;6.72;;
57443;SDS011;43289;52.962;6.196;2023-12-04T14:13:49;11.18;;;6.72;;
57443;SDS011;43289;52.962;6.196;2023-12-04T14:16:15;11.20;;;6.55;;
57443;SDS011;43289;52.962;6.196;2023-12-04T14:18:41;11.52;;;7.07;;
57443;SDS011;43289;52.962;6.196;2023-12-04T14:21:10;10.43;;;6.30;;
57443;SDS011;43289;52.962;6.196;2023-12-04T14:23:36;11.40;;;6.97;;
57443;SDS011;43289;52.962;6.196;2023-12-04T14:26:02;12.50;;;6.57;;
57443;SDS011;43289;52.962;6.196;2023-12-04T14:28:28;10.80;;;6.60;;